Time;durP1;ratioP1;P1;durP2;ratioP2;P2;SDS_P1;SDS_P2;PMS_P1;PMS_P2;Temp;Humidity;BMP_temperature;BMP_pressure;BME280_temperature;BME280_humidity;BME280_pressure;Samples;Min_cycle;Max_cycle;Signal;HPM_P1;HPM_P2
2023/12/11 00:00:59;;;;;;;;;0.67;0.67;;;;;15.93;100.00;100104.78;2088112;28;46653;-54
2023/12/11 00:01:59;;;;;;;;;0.67;0.67;;;;;15.95;100.00;100104.72;2087368;28;46676;-55
2023/12/11 00:02:59;;;;;;;;;0.67;0.67;;;;;15.94;100.00;100101.16;2087509;28;46302;-55
2023/12/11 00:04:00;;;;;;;;;0.67;0.67;;;;;15.95;100.00;100100.22;2086414;28;46505;-57
2023/12/11 00:05:00;;;;;;;;;2.67;0.67;;;;;15.95;100.00;100112.72;2088470;28;46930;-55
2023/12/11 00:06:01;;;;;;;;;1.67;1.67;;;;;15.94;100.00;100106.53;2086554;28;46873;-58
2023/12/11 00:07:01;;;;;;;;;1.67;0.67;;;;;15.99;100.00;100095.56;2085253;28;46515;-57
2023/12/11 00:08:01;;;;;;;;;2.67;1.67;;;;;16.00;100.00;100092.78;2095854;28;46194;-57
2023/12/11 00:09:02;;;;;;;;;4.00;1.67;;;;;16.02;100.00;100100.78;2094904;28;46777;-55
2023/12/11 00:10:02;;;;;;;;;2.67;1.67;;;;;16.02;100.00;100093.59;2087642;28;46451;-58
2023/12/11 00:11:03;;;;;;;;;1.33;1.33;;;;;16.01;100.00;100094.56;2087312;28;46277;-54
2023/12/11 00:12:03;;;;;;;;;3.67;1.67;;;;;16.03;100.00;100094.47;2086056;28;45950;-57
2023/12/11 00:13:04;;;;;;;;;0.67;0.67;;;;;15.95;100.00;100092.19;2088040;28;46449;-56
2023/12/11 00:14:04;;;;;;;;;0.67;0.67;;;;;15.94;100.00;100093.13;2085795;28;46785;-57
2023/12/11 00:15:05;;;;;;;;;3.33;0.67;;;;;15.94;100.00;100090.47;2086163;28;46798;-54
2023/12/11 00:16:05;;;;;;;;;3.33;0.67;;;;;15.94;100.00;100087.78;2088109;28;47464;-58
2023/12/11 00:17:06;;;;;;;;;2.00;0.67;;;;;15.92;100.00;100089.69;2086632;28;46278;-58
2023/12/11 00:18:06;;;;;;;;;1.67;1.33;;;;;15.92;100.00;100088.81;2077325;28;45997;-56
2023/12/11 00:19:07;;;;;;;;;6.00;2.33;;;;;15.92;100.00;100080.78;2070198;28;46610;-58
2023/12/11 00:20:08;;;;;;;;;2.75;0.75;;;;;15.89;100.00;100079.16;2086639;28;46361;-58
2023/12/11 00:21:08;;;;;;;;;1.67;1.67;;;;;15.90;100.00;100086.22;2085314;28;46192;-53
2023/12/11 00:22:09;;;;;;;;;3.33;1.67;;;;;15.89;100.00;100080.03;2087408;28;46194;-57
2023/12/11 00:23:09;;;;;;;;;2.00;1.67;;;;;15.88;100.00;100078.28;2085505;28;46820;-54
2023/12/11 00:24:09;;;;;;;;;2.67;0.67;;;;;15.88;100.00;100078.28;2088535;28;46622;-56
2023/12/11 00:25:13;;;;;;;;;0.67;0.67;;;;;15.89;100.00;100089.84;2089559;28;46264;-57
2023/12/11 00:26:13;;;;;;;;;1.75;1.75;;;;;15.90;100.00;100075.53;2094411;28;46962;-54
2023/12/11 00:27:14;;;;;;;;;4.00;2.33;;;;;15.89;100.00;100085.38;2087883;28;46355;-57
2023/12/11 00:28:14;;;;;;;;;1.33;0.67;;;;;15.88;100.00;100070.25;2087882;28;46753;-55
2023/12/11 00:29:14;;;;;;;;;2.33;0.67;;;;;15.88;100.00;100070.25;2088015;28;46324;-54
2023/12/11 00:30:15;;;;;;;;;0.67;0.67;;;;;15.87;100.00;100063.16;2088071;28;46411;-51
2023/12/11 00:31:15;;;;;;;;;0.67;0.67;;;;;15.86;100.00;100060.56;2087553;28;46328;-56
2023/12/11 00:32:15;;;;;;;;;0.33;0.33;;;;;15.88;100.00;100056.88;2087992;28;46715;-54
2023/12/11 00:33:16;;;;;;;;;1.00;1.00;;;;;15.87;100.00;100063.16;2087510;28;46258;-57
2023/12/11 00:34:16;;;;;;;;;1.67;1.67;;;;;15.87;100.00;100073.84;2087857;28;46356;-53
2023/12/11 00:35:16;;;;;;;;;1.67;1.67;;;;;15.85;100.00;100070.41;2086558;28;46323;-55
2023/12/11 00:36:17;;;;;;;;;1.67;1.67;;;;;15.84;100.00;100073.16;2087449;28;46748;-55
2023/12/11 00:37:17;;;;;;;;;0.67;0.67;;;;;15.84;100.00;100049.09;2088513;28;46398;-57
2023/12/11 00:38:17;;;;;;;;;2.00;2.00;;;;;15.83;100.00;100058.94;2081669;28;46837;-55
2023/12/11 00:39:18;;;;;;;;;3.33;3.33;;;;;15.82;100.00;100056.34;2082676;28;46147;-54
2023/12/11 00:40:18;;;;;;;;;1.00;1.00;;;;;15.82;100.00;100059.88;2084013;28;46258;-56
2023/12/11 00:41:19;;;;;;;;;1.00;1.00;;;;;15.81;100.00;100060.81;2087707;28;46464;-53
2023/12/11 00:42:19;;;;;;;;;2.67;1.67;;;;;15.81;100.00;100062.63;2087799;28;46260;-55
2023/12/11 00:43:19;;;;;;;;;1.67;1.67;;;;;15.81;100.00;100062.63;2081598;28;46941;-56
2023/12/11 00:44:20;;;;;;;;;1.33;1.33;;;;;15.79;100.00;100070.75;2086016;28;46651;-55
2023/12/11 00:45:20;;;;;;;;;3.67;1.67;;;;;15.79;100.00;100078.78;2087919;28;46105;-57
2023/12/11 00:46:22;;;;;;;;;2.00;0.67;;;;;15.77;100.00;100069.97;2082288;28;46339;-56
2023/12/11 00:47:22;;;;;;;;;0.75;0.50;;;;;15.77;100.00;100077.13;2082436;28;46384;-54
2023/12/11 00:48:23;;;;;;;;;0.67;0.67;;;;;15.76;100.00;100068.25;2088175;28;46552;-57
2023/12/11 00:49:23;;;;;;;;;2.67;1.67;;;;;15.75;100.00;100068.28;2087803;28;46704;-57
2023/12/11 00:50:23;;;;;;;;;2.33;1.67;;;;;15.76;100.00;100067.38;2088058;28;46484;-54
2023/12/11 00:51:23;;;;;;;;;1.67;1.33;;;;;15.74;100.00;100071.91;2086455;28;46624;-54
2023/12/11 00:52:24;;;;;;;;;1.33;1.33;;;;;15.75;100.00;100070.97;2086382;28;45880;-55
2023/12/11 00:53:24;;;;;;;;;1.67;1.33;;;;;15.75;100.00;100073.66;2088361;28;45884;-58
2023/12/11 00:54:24;;;;;;;;;2.00;2.00;;;;;15.75;100.00;100073.66;2086166;28;46404;-53
2023/12/11 00:55:25;;;;;;;;;5.33;1.67;;;;;15.75;100.00;100073.66;2087914;28;46499;-54
2023/12/11 00:56:25;;;;;;;;;1.67;0.67;;;;;15.75;100.00;100066.53;2088019;28;46293;-56
2023/12/11 00:57:25;;;;;;;;;0.67;0.67;;;;;15.75;100.00;100073.66;2084101;28;46551;-56
2023/12/11 00:58:26;;;;;;;;;1.67;0.67;;;;;15.71;100.00;100069.41;2079398;28;46711;-54
2023/12/11 00:59:26;;;;;;;;;1.67;1.67;;;;;15.72;100.00;100066.66;2090963;28;46685;-52
2023/12/11 01:00:26;;;;;;;;;3.67;1.67;;;;;15.71;100.00;100058.72;2089205;28;46462;-56
2023/12/11 01:01:27;;;;;;;;;2.00;1.00;;;;;15.69;100.00;100060.63;2089426;28;46502;-53
2023/12/11 01:02:27;;;;;;;;;1.33;1.33;;;;;15.69;100.00;100064.16;2088844;28;46356;-55
2023/12/11 01:03:27;;;;;;;;;2.67;1.33;;;;;15.68;100.00;100056.22;2089195;28;46612;-56
2023/12/11 01:04:27;;;;;;;;;1.67;1.67;;;;;15.66;100.00;100050.94;2089028;28;46111;-54
2023/12/11 01:05:28;;;;;;;;;4.33;1.67;;;;;15.63;100.00;100059.13;2088923;28;46600;-58
2023/12/11 01:06:28;;;;;;;;;2.00;2.00;;;;;15.63;100.00;100061.81;2086813;28;46401;-58
2023/12/11 01:07:28;;;;;;;;;3.67;2.67;;;;;15.64;100.00;100063.53;2087600;28;46285;-55
2023/12/11 01:08:30;;;;;;;;;2.33;2.33;;;;;15.65;100.00;100061.72;2087959;28;46277;-56
2023/12/11 01:09:30;;;;;;;;;3.50;2.75;;;;;15.65;100.00;100059.06;2089225;28;46836;-56
2023/12/11 01:10:30;;;;;;;;;2.67;1.00;;;;;15.65;100.00;100059.06;2088884;28;46458;-55
2023/12/11 01:11:31;;;;;;;;;1.67;1.67;;;;;15.62;100.00;100054.72;2089195;28;47013;-56
2023/12/11 01:12:31;;;;;;;;;4.33;3.00;;;;;15.61;100.00;100063.69;2089582;28;46293;-54
2023/12/11 01:13:32;;;;;;;;;2.00;2.00;;;;;15.64;100.00;100060.88;2089181;28;46232;-55
2023/12/11 01:14:32;;;;;;;;;3.00;3.00;;;;;15.64;100.00;100079.59;2087816;28;44964;-55
2023/12/11 01:15:32;;;;;;;;;3.33;1.33;;;;;15.64;100.00;100082.25;2087148;28;46022;-54
2023/12/11 01:16:33;;;;;;;;;1.67;1.67;;;;;15.64;100.00;100086.75;2089196;28;45760;-57
2023/12/11 01:17:33;;;;;;;;;2.67;2.67;;;;;15.63;100.00;100101.06;2089120;28;46085;-54
2023/12/11 01:18:34;;;;;;;;;2.67;1.67;;;;;15.62;100.00;100092.16;2088839;28;46009;-55
2023/12/11 01:19:34;;;;;;;;;2.00;2.00;;;;;15.65;100.00;100091.16;2089010;28;47226;-56
2023/12/11 01:20:34;;;;;;;;;2.00;1.67;;;;;15.66;100.00;100082.19;2089159;28;46365;-54
2023/12/11 01:21:35;;;;;;;;;1.67;1.67;;;;;15.67;100.00;100086.59;2089154;28;46531;-54
2023/12/11 01:22:35;;;;;;;;;2.00;2.00;;;;;15.67;100.00;100100.81;2089355;28;46221;-55
2023/12/11 01:23:35;;;;;;;;;5.00;4.00;;;;;15.67;100.00;100094.59;2089172;28;46957;-56
2023/12/11 01:24:36;;;;;;;;;2.67;2.00;;;;;15.65;100.00;100096.50;2096903;28;47446;-57
2023/12/11 01:25:36;;;;;;;;;1.00;0.33;;;;;15.66;100.00;100092.88;2096788;28;46255;-56
2023/12/11 01:26:37;;;;;;;;;3.00;3.00;;;;;15.67;100.00;100102.63;2089204;28;46320;-55
2023/12/11 01:27:38;;;;;;;;;2.50;1.75;;;;;15.66;100.00;100109.78;2089297;28;46397;-55
2023/12/11 01:28:38;;;;;;;;;2.33;2.33;;;;;15.67;100.00;100119.53;2088934;28;46851;-56
2023/12/11 01:29:39;;;;;;;;;3.67;3.67;;;;;15.67;100.00;100114.19;2095978;28;46268;-54
2023/12/11 01:30:39;;;;;;;;;1.67;1.00;;;;;15.69;100.00;100114.13;2088412;28;46522;-55
2023/12/11 01:31:39;;;;;;;;;1.67;1.67;;;;;15.68;100.00;100121.28;2087414;28;46656;-56
2023/12/11 01:32:40;;;;;;;;;1.00;1.00;;;;;15.67;100.00;100116.88;2089609;28;46732;-56
2023/12/11 01:33:40;;;;;;;;;3.33;2.00;;;;;15.68;100.00;100120.41;2088569;28;46198;-55
2023/12/11 01:34:40;;;;;;;;;1.00;1.00;;;;;15.67;100.00;100116.00;2088536;28;46314;-57
2023/12/11 01:35:41;;;;;;;;;1.00;1.00;;;;;15.68;100.00;100110.56;2088947;28;46668;-56
2023/12/11 01:36:42;;;;;;;;;2.00;1.00;;;;;15.69;100.00;100106.09;2088585;28;46396;-56
2023/12/11 01:37:43;;;;;;;;;3.50;1.75;;;;;15.67;100.00;100103.50;2088638;28;46593;-58
2023/12/11 01:38:44;;;;;;;;;2.75;2.75;;;;;15.68;100.00;100099.88;2088811;28;46830;-59
2023/12/11 01:39:44;;;;;;;;;3.00;3.00;;;;;15.67;100.00;100094.59;2086823;28;46359;-53
2023/12/11 01:40:45;;;;;;;;;0.00;0.00;;;;;15.67;100.00;100086.59;2087236;28;46671;-54
2023/12/11 01:41:45;;;;;;;;;3.67;2.67;;;;;15.67;100.00;100086.59;2089038;28;47151;-55
2023/12/11 01:42:45;;;;;;;;;2.67;2.67;;;;;15.67;100.00;100079.44;2087328;28;46619;-57
2023/12/11 01:43:53;;;;;;;;;2.33;2.33;;;;;15.67;100.00;100070.53;2085571;28;46609;-55
2023/12/11 01:44:54;;;;;;;;;2.75;2.75;;;;;15.67;100.00;100067.88;2088947;28;46703;-54
2023/12/11 01:45:59;;;;;;;;;2.67;1.67;;;;;15.67;100.00;100079.44;2089045;28;46630;-57
2023/12/11 01:47:00;;;;;;;;;3.00;2.50;;;;;15.67;100.00;100092.78;2089021;28;46547;-55
2023/12/11 01:48:00;;;;;;;;;1.67;1.67;;;;;15.67;100.00;100095.47;2088768;28;45558;-53
2023/12/11 01:49:00;;;;;;;;;2.33;2.00;;;;;15.66;100.00;100091.06;2087329;28;46508;-56
2023/12/11 01:50:01;;;;;;;;;3.00;2.00;;;;;15.64;100.00;100086.75;2089038;28;46281;-56
2023/12/11 01:51:03;;;;;;;;;6.67;3.00;;;;;15.67;100.00;100091.94;2088566;28;46428;-57
2023/12/11 01:52:05;;;;;;;;;3.00;3.00;;;;;15.66;100.00;100091.06;2088961;28;47202;-53
2023/12/11 01:53:06;;;;;;;;;4.00;2.75;;;;;15.65;100.00;100092.03;2088747;28;46738;-56
2023/12/11 01:54:06;;;;;;;;;1.75;1.75;;;;;15.66;100.00;100092.88;2088923;28;46913;-54
2023/12/11 01:55:07;;;;;;;;;3.33;3.00;;;;;15.66;100.00;100100.91;2089089;28;46274;-55
2023/12/11 01:56:08;;;;;;;;;2.00;1.67;;;;;15.65;100.00;100100.03;2088953;28;46240;-54
2023/12/11 01:57:09;;;;;;;;;4.00;1.75;;;;;15.64;100.00;100106.34;2088821;28;46810;-55
2023/12/11 01:58:12;;;;;;;;;0.67;0.67;;;;;15.65;100.00;100101.84;2088844;28;46603;-55
2023/12/11 01:59:13;;;;;;;;;4.00;3.25;;;;;15.64;100.00;100103.66;2088786;28;46652;-56
2023/12/11 02:00:14;;;;;;;;;2.00;2.00;;;;;15.64;100.00;100106.34;2083420;28;46381;-52
2023/12/11 02:01:16;;;;;;;;;1.67;1.00;;;;;15.64;100.00;100109.00;2088854;28;46872;-55
2023/12/11 02:02:19;;;;;;;;;4.00;2.25;;;;;15.66;100.00;100104.44;2088642;28;46654;-55
2023/12/11 02:03:21;;;;;;;;;3.25;2.75;;;;;15.68;100.00;100112.38;2095966;28;46486;-56
2023/12/11 02:04:21;;;;;;;;;4.00;2.00;;;;;15.67;100.00;100100.81;2095737;28;46409;-55
2023/12/11 02:05:21;;;;;;;;;2.67;2.67;;;;;15.66;100.00;100117.81;2086718;28;46271;-55
2023/12/11 02:06:22;;;;;;;;;0.33;0.33;;;;;15.65;100.00;100086.66;2088972;28;46768;-54
2023/12/11 02:07:22;;;;;;;;;5.67;3.33;;;;;15.64;100.00;100089.44;2086815;28;46623;-56
2023/12/11 02:08:23;;;;;;;;;2.67;2.33;;;;;15.61;100.00;100077.06;2089220;28;45149;-54
2023/12/11 02:09:26;;;;;;;;;0.67;0.67;;;;;15.60;100.00;100081.53;2088608;28;46357;-55
2023/12/11 02:10:27;;;;;;;;;3.00;1.75;;;;;15.61;100.00;100069.03;2085918;28;46083;-55
2023/12/11 02:11:28;;;;;;;;;4.00;2.00;;;;;15.63;100.00;100080.53;2087946;28;46429;-55
2023/12/11 02:12:28;;;;;;;;;2.33;2.33;;;;;15.63;100.00;100077.88;2088183;28;46529;-56
2023/12/11 02:13:28;;;;;;;;;5.00;2.00;;;;;15.65;100.00;100080.47;2087488;28;46568;-55
2023/12/11 02:14:29;;;;;;;;;4.67;3.00;;;;;15.62;100.00;100073.44;2088770;28;46520;-56
2023/12/11 02:15:38;;;;;;;;;3.33;2.33;;;;;15.63;100.00;100069.84;2088709;28;46532;-55
2023/12/11 02:16:39;;;;;;;;;3.25;3.00;;;;;15.63;100.00;100064.50;2088621;28;46791;-59
2023/12/11 02:17:39;;;;;;;;;4.00;2.00;;;;;15.62;100.00;100059.19;2088741;28;45972;-55
2023/12/11 02:18:39;;;;;;;;;2.00;2.00;;;;;15.62;100.00;100057.38;2092137;28;46375;-55
2023/12/11 02:19:39;;;;;;;;;2.33;2.33;;;;;15.62;100.00;100057.38;2090093;28;47138;-53
2023/12/11 02:20:41;;;;;;;;;4.00;2.67;;;;;15.61;100.00;100058.34;2089289;28;46527;-54
2023/12/11 02:21:41;;;;;;;;;2.75;1.75;;;;;15.63;100.00;100063.63;2085528;28;47100;-55
2023/12/11 02:22:42;;;;;;;;;1.67;1.67;;;;;15.63;100.00;100056.47;2087441;28;46040;-55
2023/12/11 02:23:59;;;;;;;;;1.33;0.33;;;;;15.62;100.00;100069.91;2072831;28;46488;-53
2023/12/11 02:25:04;;;;;;;;;3.00;1.50;;;;;15.59;100.00;100069.13;2075762;28;46657;-53
2023/12/11 02:26:15;;;;;;;;;4.50;2.50;;;;;15.62;100.00;100077.91;2080640;28;46930;-53
2023/12/11 02:27:16;;;;;;;;;1.00;1.00;;;;;15.60;100.00;100073.50;2087633;28;46750;-55
2023/12/11 02:28:17;;;;;;;;;1.67;1.33;;;;;15.59;100.00;100050.41;2088872;28;46347;-53
2023/12/11 02:29:17;;;;;;;;;4.67;3.00;;;;;15.60;100.00;100060.13;2088762;28;46467;-53
2023/12/11 02:30:17;;;;;;;;;4.00;4.00;;;;;15.60;100.00;100056.59;2088494;28;46550;-55
2023/12/11 02:31:18;;;;;;;;;4.67;3.00;;;;;15.60;100.00;100064.63;2088353;28;46672;-53
2023/12/11 02:32:18;;;;;;;;;3.00;3.00;;;;;15.62;100.00;100061.88;2088656;28;47089;-55
2023/12/11 02:33:18;;;;;;;;;3.67;3.00;;;;;15.61;100.00;100052.97;2088197;28;46987;-56
2023/12/11 02:34:19;;;;;;;;;2.00;2.00;;;;;15.61;100.00;100052.97;2088883;28;46667;-51
2023/12/11 02:35:19;;;;;;;;;4.00;3.00;;;;;15.63;100.00;100058.28;2088653;28;46500;-55
2023/12/11 02:36:19;;;;;;;;;1.00;1.00;;;;;15.64;100.00;100057.34;2088721;28;46809;-53
2023/12/11 02:37:20;;;;;;;;;3.00;2.00;;;;;15.66;100.00;100050.09;2088683;28;46618;-53
2023/12/11 02:38:20;;;;;;;;;3.33;3.00;;;;;15.66;100.00;100056.31;2088739;28;46428;-53
2023/12/11 02:39:20;;;;;;;;;4.33;2.33;;;;;15.66;100.00;100058.09;2088699;28;46725;-55
2023/12/11 02:40:20;;;;;;;;;1.67;1.67;;;;;15.66;100.00;100064.31;2085998;28;46692;-56
2023/12/11 02:41:21;;;;;;;;;2.00;0.67;;;;;15.67;100.00;100067.88;2088630;28;46134;-55
2023/12/11 02:42:21;;;;;;;;;2.00;2.00;;;;;15.67;100.00;100059.84;2088948;28;44987;-57
2023/12/11 02:43:21;;;;;;;;;2.67;2.67;;;;;15.65;100.00;100056.38;2087249;28;46609;-54
2023/12/11 02:44:22;;;;;;;;;4.67;4.33;;;;;15.65;100.00;100048.34;2082888;28;46521;-54
2023/12/11 02:45:22;;;;;;;;;4.67;3.00;;;;;15.62;100.00;100035.97;2088791;28;46661;-53
2023/12/11 02:46:22;;;;;;;;;2.33;1.00;;;;;15.62;100.00;100033.31;2088616;28;46525;-54
2023/12/11 02:47:22;;;;;;;;;1.00;1.00;;;;;15.58;100.00;100024.56;2089116;28;47298;-52
2023/12/11 02:48:23;;;;;;;;;1.67;1.33;;;;;15.60;100.00;100027.19;2088224;28;46320;-54
2023/12/11 02:49:23;;;;;;;;;1.33;1.33;;;;;15.60;100.00;100032.53;2089030;28;46640;-54
2023/12/11 02:50:23;;;;;;;;;2.00;2.00;;;;;15.57;100.00;100030.84;2089230;28;46386;-54
2023/12/11 02:51:24;;;;;;;;;3.33;2.00;;;;;15.58;100.00;100042.41;2088438;28;46235;-56
2023/12/11 02:52:24;;;;;;;;;1.33;1.33;;;;;15.58;100.00;100037.06;2088510;28;46574;-56
2023/12/11 02:53:24;;;;;;;;;3.67;3.00;;;;;15.60;100.00;100038.75;2095429;28;46212;-53
2023/12/11 02:54:25;;;;;;;;;3.00;2.00;;;;;15.61;100.00;100044.97;2095886;28;46261;-54
2023/12/11 02:55:26;;;;;;;;;6.00;3.00;;;;;15.60;100.00;100053.94;2088338;28;46543;-55
2023/12/11 02:56:26;;;;;;;;;3.00;2.00;;;;;15.60;100.00;100062.81;2086931;28;46502;-55
2023/12/11 02:57:26;;;;;;;;;7.00;6.00;;;;;15.60;100.00;100057.47;2087056;28;46543;-54
2023/12/11 02:58:26;;;;;;;;;4.33;2.00;;;;;15.62;100.00;100051.16;2080415;28;46770;-55
2023/12/11 02:59:27;;;;;;;;;4.00;2.00;;;;;15.62;100.00;100048.50;2085921;28;46611;-54
2023/12/11 03:00:29;;;;;;;;;2.00;1.33;;;;;15.63;100.00;100040.41;2088505;28;46673;-54
2023/12/11 03:01:29;;;;;;;;;2.75;2.75;;;;;15.62;100.00;100035.97;2088368;28;46870;-54
2023/12/11 03:02:29;;;;;;;;;1.67;1.67;;;;;15.63;100.00;100032.41;2088533;28;46765;-56
2023/12/11 03:03:30;;;;;;;;;3.67;3.00;;;;;15.64;100.00;100028.78;2088467;28;46384;-56
2023/12/11 03:04:30;;;;;;;;;4.00;3.33;;;;;15.64;100.00;100036.78;2088456;28;46757;-54
2023/12/11 03:05:30;;;;;;;;;5.00;2.00;;;;;15.63;100.00;100047.59;2087863;28;46554;-53
2023/12/11 03:06:31;;;;;;;;;3.67;2.33;;;;;15.63;100.00;100048.44;2088703;28;46917;-52
2023/12/11 03:07:31;;;;;;;;;2.00;1.67;;;;;15.63;100.00;100051.13;2088554;28;46065;-55
2023/12/11 03:08:31;;;;;;;;;2.67;2.67;;;;;15.62;100.00;100043.16;2088612;28;46297;-53
2023/12/11 03:09:32;;;;;;;;;5.00;3.00;;;;;15.60;100.00;100043.22;2070799;28;46021;-53
2023/12/11 03:10:33;;;;;;;;;3.00;3.00;;;;;15.62;100.00;100043.16;2071191;28;46633;-56
2023/12/11 03:11:33;;;;;;;;;7.00;4.00;;;;;15.62;100.00;100048.50;2087976;28;45946;-54
2023/12/11 03:12:34;;;;;;;;;2.67;2.67;;;;;15.59;100.00;100044.16;2079824;28;46763;-56
2023/12/11 03:13:34;;;;;;;;;2.00;2.00;;;;;15.64;100.00;100044.81;2086566;28;46576;-54
2023/12/11 03:14:34;;;;;;;;;2.00;2.00;;;;;15.65;100.00;100051.03;2080680;28;46650;-56
2023/12/11 03:15:34;;;;;;;;;3.33;1.67;;;;;15.64;100.00;100052.84;2078645;28;46495;-53
2023/12/11 03:16:35;;;;;;;;;2.33;1.67;;;;;15.65;100.00;100045.69;2078971;28;46463;-57
2023/12/11 03:17:35;;;;;;;;;2.00;2.00;;;;;15.65;100.00;100035.84;2088070;28;46341;-57
2023/12/11 03:18:36;;;;;;;;;2.00;2.00;;;;;15.65;100.00;100025.16;2088556;28;46714;-55
2023/12/11 03:19:36;;;;;;;;;0.67;0.67;;;;;15.67;100.00;100025.94;2096495;28;46422;-56
2023/12/11 03:20:37;;;;;;;;;2.33;2.00;;;;;15.66;100.00;100024.19;2095972;28;46827;-55
2023/12/11 03:21:37;;;;;;;;;6.00;1.67;;;;;15.67;100.00;100028.59;2088093;28;46302;-56
2023/12/11 03:22:37;;;;;;;;;2.33;2.00;;;;;15.65;100.00;100033.19;2087445;28;46493;-53
2023/12/11 03:23:38;;;;;;;;;5.00;3.67;;;;;15.65;100.00;100030.50;2088204;28;46251;-55
2023/12/11 03:24:38;;;;;;;;;2.50;2.00;;;;;15.65;100.00;100025.16;2088418;28;46948;-55
2023/12/11 03:25:39;;;;;;;;;3.33;2.67;;;;;15.63;100.00;100029.72;2088291;28;46406;-55
2023/12/11 03:26:39;;;;;;;;;4.00;1.67;;;;;15.64;100.00;100017.22;2088438;28;46240;-50
2023/12/11 03:27:39;;;;;;;;;3.67;2.00;;;;;15.64;100.00;100019.88;2088510;28;46946;-55
2023/12/11 03:28:40;;;;;;;;;1.67;1.33;;;;;15.64;100.00;100012.72;2087761;28;46238;-55
2023/12/11 03:29:41;;;;;;;;;3.00;2.00;;;;;15.65;100.00;100009.09;2086209;28;46638;-56
2023/12/11 03:30:42;;;;;;;;;2.00;2.00;;;;;15.65;100.00;100018.94;2088306;28;47017;-56
2023/12/11 03:31:42;;;;;;;;;2.67;2.67;;;;;15.64;100.00;100015.41;2087869;28;46717;-55
2023/12/11 03:32:43;;;;;;;;;2.33;2.00;;;;;15.65;100.00;100002.88;2088649;28;46541;-54
2023/12/11 03:33:43;;;;;;;;;4.33;2.00;;;;;15.66;100.00;99988.56;2088396;28;46184;-55
2023/12/11 03:34:43;;;;;;;;;3.67;2.67;;;;;15.65;100.00;99993.06;2088222;28;46686;-54
2023/12/11 03:35:44;;;;;;;;;2.67;2.67;;;;;15.65;100.00;100001.06;2088372;28;46615;-58
2023/12/11 03:36:44;;;;;;;;;5.00;3.00;;;;;15.66;100.00;99999.25;2088304;28;46225;-56
2023/12/11 03:37:44;;;;;;;;;4.00;3.00;;;;;15.64;100.00;100010.06;2088023;28;46184;-55
2023/12/11 03:38:44;;;;;;;;;2.67;2.67;;;;;15.66;100.00;100004.63;2087232;28;46243;-53
2023/12/11 03:39:45;;;;;;;;;4.00;4.00;;;;;15.66;100.00;100008.16;2087015;28;46625;-56
2023/12/11 03:40:45;;;;;;;;;2.33;1.67;;;;;15.66;100.00;100009.97;2087379;28;46724;-56
2023/12/11 03:41:45;;;;;;;;;3.67;2.67;;;;;15.66;100.00;100012.63;2088748;28;46923;-54
2023/12/11 03:42:46;;;;;;;;;2.67;1.67;;;;;15.68;100.00;100018.75;2088216;28;46824;-55
2023/12/11 03:43:46;;;;;;;;;2.00;1.67;;;;;15.68;100.00;100026.78;2088248;28;46397;-54
2023/12/11 03:44:46;;;;;;;;;6.00;1.00;;;;;15.69;100.00;100012.47;2095047;28;46475;-54
2023/12/11 03:45:47;;;;;;;;;4.67;2.67;;;;;15.69;100.00;100015.13;2095383;28;46805;-54
2023/12/11 03:46:48;;;;;;;;;2.75;2.50;;;;;15.70;100.00;100008.84;2088202;28;46401;-55
2023/12/11 03:47:48;;;;;;;;;2.00;2.00;;;;;15.70;100.00;100017.72;2085998;28;46787;-56
2023/12/11 03:48:48;;;;;;;;;4.00;2.67;;;;;15.71;100.00;100010.56;2088275;28;46525;-54
2023/12/11 03:49:49;;;;;;;;;8.00;2.67;;;;;15.70;100.00;99990.97;2088162;28;46301;-56
2023/12/11 03:50:49;;;;;;;;;1.00;1.00;;;;;15.70;100.00;99982.09;2087865;28;46429;-57
2023/12/11 03:51:50;;;;;;;;;2.33;2.33;;;;;15.68;100.00;99974.16;2088207;28;45993;-56
2023/12/11 03:52:50;;;;;;;;;3.33;3.33;;;;;15.69;100.00;99962.50;2087892;28;46186;-56
2023/12/11 03:53:51;;;;;;;;;2.33;2.33;;;;;15.69;100.00;99957.16;2088157;28;46373;-56
2023/12/11 03:54:51;;;;;;;;;1.67;1.67;;;;;15.69;100.00;99961.66;2088692;28;46442;-55
2023/12/11 03:55:52;;;;;;;;;3.00;2.50;;;;;15.69;100.00;99969.66;2087887;28;46799;-56
2023/12/11 03:56:53;;;;;;;;;4.00;4.00;;;;;15.69;100.00;99989.25;2088059;28;46184;-55
2023/12/11 03:57:53;;;;;;;;;5.67;2.67;;;;;15.69;100.00;99994.59;2088720;28;46248;-56
2023/12/11 03:58:53;;;;;;;;;4.00;1.67;;;;;15.70;100.00;99992.78;2088376;28;46837;-54
2023/12/11 03:59:54;;;;;;;;;4.67;3.00;;;;;15.70;100.00;99990.97;2088763;28;46182;-56
2023/12/11 04:00:54;;;;;;;;;1.33;1.33;;;;;15.70;100.00;99998.13;2087903;28;46378;-54
2023/12/11 04:01:54;;;;;;;;;3.67;2.33;;;;;15.70;100.00;99996.34;2087306;28;46119;-56
2023/12/11 04:02:54;;;;;;;;;2.33;2.33;;;;;15.67;100.00;100009.88;2083014;28;46700;-56
2023/12/11 04:03:55;;;;;;;;;2.67;2.00;;;;;15.68;100.00;100010.75;2084225;28;46582;-55
2023/12/11 04:04:55;;;;;;;;;3.33;2.33;;;;;15.68;100.00;100003.56;2088851;28;46663;-54
2023/12/11 04:05:55;;;;;;;;;4.00;3.00;;;;;15.67;100.00;99999.19;2087950;28;46425;-55
2023/12/11 04:06:56;;;;;;;;;4.33;3.00;;;;;15.68;100.00;99990.19;2088297;28;46305;-56
2023/12/11 04:07:56;;;;;;;;;3.33;2.00;;;;;15.68;100.00;99994.69;2087805;28;46542;-55
2023/12/11 04:08:56;;;;;;;;;3.67;3.00;;;;;15.68;100.00;100013.41;2087992;28;46225;-57
2023/12/11 04:09:56;;;;;;;;;3.00;1.67;;;;;15.67;100.00;100012.56;2087187;28;46766;-54
2023/12/11 04:10:57;;;;;;;;;3.00;2.00;;;;;15.68;100.00;100014.28;2086909;28;46236;-56
2023/12/11 04:11:57;;;;;;;;;3.00;3.00;;;;;15.68;100.00;100003.56;2087812;28;46809;-53
2023/12/11 04:13:02;;;;;;;;;3.67;2.33;;;;;15.69;100.00;99985.72;2088532;28;46201;-54
2023/12/11 04:14:02;;;;;;;;;3.25;3.25;;;;;15.69;100.00;99983.91;2087862;28;46692;-55
2023/12/11 04:15:03;;;;;;;;;6.00;2.33;;;;;15.70;100.00;99992.78;2088324;28;45928;-56
2023/12/11 04:16:04;;;;;;;;;3.00;2.67;;;;;15.70;100.00;99998.13;2088193;28;46385;-52
2023/12/11 04:17:04;;;;;;;;;6.00;2.00;;;;;15.69;100.00;99991.06;2078297;28;46666;-55
2023/12/11 04:18:04;;;;;;;;;2.00;2.00;;;;;15.69;100.00;99986.56;2078726;28;46287;-53
2023/12/11 04:19:05;;;;;;;;;4.00;2.67;;;;;15.70;100.00;99993.66;2088097;28;46277;-55
2023/12/11 04:20:05;;;;;;;;;2.33;2.00;;;;;15.69;100.00;99991.94;2087708;28;46396;-55
2023/12/11 04:21:06;;;;;;;;;6.00;4.67;;;;;15.70;100.00;99990.13;2086777;28;46858;-57
2023/12/11 04:22:06;;;;;;;;;2.67;2.67;;;;;15.69;100.00;100002.63;2087475;28;46108;-57
2023/12/11 04:23:06;;;;;;;;;3.67;3.67;;;;;15.71;100.00;99997.19;2086589;28;46237;-54
2023/12/11 04:24:07;;;;;;;;;8.00;4.00;;;;;15.72;100.00;100006.94;2086641;28;46726;-55
2023/12/11 04:25:07;;;;;;;;;6.00;5.33;;;;;15.71;100.00;100010.56;2083220;28;46202;-55
2023/12/11 04:26:07;;;;;;;;;3.33;2.67;;;;;15.71;100.00;100014.09;2086459;28;46743;-54
2023/12/11 04:27:08;;;;;;;;;4.67;2.67;;;;;15.72;100.00;100014.97;2086846;28;46220;-56
2023/12/11 04:28:08;;;;;;;;;4.00;2.67;;;;;15.72;100.00;100026.53;2087765;28;46728;-55
2023/12/11 04:29:08;;;;;;;;;4.67;4.67;;;;;15.73;100.00;100030.06;2087857;28;46453;-54
2023/12/11 04:30:09;;;;;;;;;3.67;3.67;;;;;15.74;100.00;100032.66;2087742;28;46741;-53
2023/12/11 04:31:10;;;;;;;;;2.33;0.67;;;;;15.74;100.00;100032.66;2087728;28;46480;-55
2023/12/11 04:32:11;;;;;;;;;3.33;3.33;;;;;15.74;100.00;100029.97;2087884;28;46762;-54
2023/12/11 04:33:11;;;;;;;;;4.67;2.00;;;;;15.75;100.00;100021.03;2087783;28;46569;-56
2023/12/11 04:34:12;;;;;;;;;5.00;2.33;;;;;15.75;100.00;100020.16;2086716;28;45867;-55
2023/12/11 04:35:12;;;;;;;;;5.67;2.67;;;;;15.76;100.00;100017.41;2088036;28;46346;-54
2023/12/11 04:36:12;;;;;;;;;3.00;2.67;;;;;15.77;100.00;100005.75;2089198;28;46418;-55
2023/12/11 04:37:13;;;;;;;;;2.00;2.00;;;;;15.79;100.00;100005.69;2089226;28;46437;-56
2023/12/11 04:38:13;;;;;;;;;4.00;2.33;;;;;15.78;100.00;99999.47;2088148;28;46109;-54
2023/12/11 04:39:13;;;;;;;;;1.33;1.33;;;;;15.80;100.00;100002.06;2089644;28;46279;-53